LXR weather

Luxor International Airport
Luxor, Qena Governorate, Egypt

Public forecast

Using degrees Celsius for public forecast. Weather courtesy of forecast.io.

Current aviation weather report (METAR) for Luxor International Airport

Retrieved 2019/10/18 02:00 UTC (27 minutes ago):

HELX 180200Z 00000KT CAVOK 23/09 Q1012 NOSIG

Aviation forecast (TAF) for Luxor International Airport

Retrieved 2019-10-18 00:00 UTC (2 hours ago):

TAF HELX 172300Z 1800/1906 32008KT CAVOK TEMPO 1806/1812 3000HZ NSC